Time;durP1;ratioP1;P1;durP2;ratioP2;P2;SDS_P1;SDS_P2;PMS_P1;PMS_P2;Temp;Humidity;BMP_temperature;BMP_pressure;BME280_temperature;BME280_humidity;BME280_pressure;Samples;Min_cycle;Max_cycle;Signal;HPM_P1;HPM_P2
2023/12/29 00:00:35;;;;;;;2.53;1.20;;;;;;;;;;5057442;28;19921;-78
2023/12/29 00:03:01;;;;;;;2.92;1.15;;;;;;;;;;5042552;28;20044;-78
2023/12/29 00:05:27;;;;;;;2.78;1.33;;;;;;;;;;5056498;28;20484;-81
2023/12/29 00:07:55;;;;;;;5.53;1.33;;;;;;;;;;5046501;28;20037;-80
2023/12/29 00:10:21;;;;;;;4.28;1.55;;;;;;;;;;5056544;28;20055;-78
2023/12/29 00:12:52;;;;;;;3.58;1.10;;;;;;;;;;5053094;28;20033;-78
2023/12/29 00:15:18;;;;;;;3.53;1.10;;;;;;;;;;5052345;28;20060;-78
2023/12/29 00:17:44;;;;;;;4.60;1.23;;;;;;;;;;5047924;28;20037;-79
2023/12/29 00:20:09;;;;;;;3.45;1.20;;;;;;;;;;5057542;28;20064;-79
2023/12/29 00:22:35;;;;;;;2.97;1.20;;;;;;;;;;5055142;28;20516;-79
2023/12/29 00:25:00;;;;;;;3.47;1.23;;;;;;;;;;5056279;28;20388;-78
2023/12/29 00:27:26;;;;;;;3.03;1.15;;;;;;;;;;5057465;28;20514;-78
2023/12/29 00:29:51;;;;;;;5.72;1.45;;;;;;;;;;5055741;28;20037;-78
2023/12/29 00:32:17;;;;;;;3.67;1.17;;;;;;;;;;5044647;28;20062;-79
2023/12/29 00:34:42;;;;;;;3.22;1.10;;;;;;;;;;5064966;28;20040;-78
2023/12/29 00:37:08;;;;;;;3.92;1.23;;;;;;;;;;5052837;28;20037;-78
2023/12/29 00:39:38;;;;;;;2.67;1.30;;;;;;;;;;5053743;28;20047;-78
2023/12/29 00:42:04;;;;;;;3.50;1.10;;;;;;;;;;5054158;28;20036;-77
2023/12/29 00:44:30;;;;;;;3.72;1.23;;;;;;;;;;5046670;28;20484;-79
2023/12/29 00:46:55;;;;;;;3.97;1.40;;;;;;;;;;5035133;28;20043;-81
2023/12/29 00:49:21;;;;;;;3.67;1.40;;;;;;;;;;5046386;28;20075;-79
2023/12/29 00:51:55;;;;;;;3.35;1.20;;;;;;;;;;5030383;28;20417;-80
2023/12/29 00:54:20;;;;;;;4.05;1.20;;;;;;;;;;5055581;28;20112;-79
2023/12/29 00:56:54;;;;;;;3.20;1.20;;;;;;;;;;5050450;28;20182;-80
2023/12/29 00:59:20;;;;;;;4.72;1.10;;;;;;;;;;5042633;28;20040;-79
2023/12/29 01:01:45;;;;;;;2.55;1.20;;;;;;;;;;5052254;28;20028;-81
2023/12/29 01:04:11;;;;;;;3.60;1.40;;;;;;;;;;5046561;28;20264;-78
2023/12/29 01:06:42;;;;;;;4.45;1.60;;;;;;;;;;5043994;28;20049;-79
2023/12/29 01:09:11;;;;;;;2.90;1.15;;;;;;;;;;5031576;28;20044;-80
2023/12/29 01:11:37;;;;;;;3.33;1.35;;;;;;;;;;5035816;28;20040;-80
2023/12/29 01:14:02;;;;;;;3.42;1.10;;;;;;;;;;5054552;28;20039;-79
2023/12/29 01:16:28;;;;;;;3.15;1.13;;;;;;;;;;5050888;28;20041;-80
2023/12/29 01:18:53;;;;;;;4.15;1.20;;;;;;;;;;5053853;28;20044;-80
2023/12/29 01:21:19;;;;;;;4.22;1.20;;;;;;;;;;5054372;28;20071;-78
2023/12/29 01:23:47;;;;;;;3.90;1.42;;;;;;;;;;5065944;28;20029;-79
2023/12/29 01:26:12;;;;;;;5.55;1.48;;;;;;;;;;5043234;28;20040;-79
2023/12/29 01:28:38;;;;;;;4.25;1.27;;;;;;;;;;5046349;28;20121;-79
2023/12/29 01:31:03;;;;;;;4.95;1.50;;;;;;;;;;5049787;28;20466;-78
2023/12/29 01:33:31;;;;;;;4.55;1.50;;;;;;;;;;5040807;28;20044;-78
2023/12/29 01:35:56;;;;;;;;;;;;;;;;;;5029345;28;20472;-79
2023/12/29 01:38:21;;;;;;;3.65;1.30;;;;;;;;;;5053856;28;19924;-79
2023/12/29 01:40:53;;;;;;;2.70;1.10;;;;;;;;;;5043410;28;20040;-79
2023/12/29 01:43:35;;;;;;;5.28;1.10;;;;;;;;;;5055295;28;20114;-78
2023/12/29 01:46:02;;;;;;;4.60;1.20;;;;;;;;;;5049335;28;20029;-77
2023/12/29 01:48:27;;;;;;;2.90;1.08;;;;;;;;;;5053100;28;20044;-79
2023/12/29 01:50:57;;;;;;;3.38;1.20;;;;;;;;;;5041687;28;20041;-78
2023/12/29 01:53:22;;;;;;;5.20;1.33;;;;;;;;;;5069914;28;20381;-80
2023/12/29 01:55:48;;;;;;;4.05;1.33;;;;;;;;;;5033637;28;20041;-79
2023/12/29 01:58:16;;;;;;;3.55;1.10;;;;;;;;;;5043864;28;20044;-78
2023/12/29 02:00:41;;;;;;;;;;;;;;;;;;5040772;28;20090;-78
2023/12/29 02:03:07;;;;;;;2.60;1.30;;;;;;;;;;5066620;28;20356;-77
2023/12/29 02:05:35;;;;;;;4.18;1.20;;;;;;;;;;5046025;28;20431;-77
2023/12/29 02:08:04;;;;;;;4.20;1.23;;;;;;;;;;5042651;28;20025;-78
2023/12/29 02:10:30;;;;;;;3.20;1.20;;;;;;;;;;5042088;28;20565;-79
2023/12/29 02:12:59;;;;;;;2.72;1.10;;;;;;;;;;5035886;28;20033;-77
2023/12/29 02:15:24;;;;;;;5.40;1.40;;;;;;;;;;5041074;28;20032;-78
2023/12/29 02:18:02;;;;;;;4.13;1.30;;;;;;;;;;5054275;28;20373;-77
2023/12/29 02:20:27;;;;;;;;;;;;;;;;;;5053871;28;20085;-79
2023/12/29 02:22:52;;;;;;;2.40;1.00;;;;;;;;;;5054893;28;19921;-78
2023/12/29 02:25:18;;;;;;;3.65;1.40;;;;;;;;;;5052403;28;20325;-78
2023/12/29 02:27:49;;;;;;;3.58;1.20;;;;;;;;;;5053103;28;20028;-80
2023/12/29 02:30:24;;;;;;;3.67;1.20;;;;;;;;;;5036848;28;20033;-77
2023/12/29 02:32:50;;;;;;;2.17;0.90;;;;;;;;;;5048801;28;20041;-78
2023/12/29 02:35:23;;;;;;;2.20;0.95;;;;;;;;;;5047659;28;20028;-79
2023/12/29 02:37:49;;;;;;;3.80;1.30;;;;;;;;;;5043279;28;20421;-79
2023/12/29 02:40:16;;;;;;;3.95;1.10;;;;;;;;;;5054422;28;20119;-78
2023/12/29 02:42:50;;;;;;;3.95;1.50;;;;;;;;;;5052824;28;20108;-78
2023/12/29 02:45:21;;;;;;;3.75;1.05;;;;;;;;;;5047734;28;20041;-77
2023/12/29 02:47:47;;;;;;;5.63;1.40;;;;;;;;;;5055953;28;20086;-80
2023/12/29 02:50:13;;;;;;;3.85;1.25;;;;;;;;;;5054848;28;20075;-80
2023/12/29 02:52:38;;;;;;;4.78;1.30;;;;;;;;;;5056775;28;20465;-79
2023/12/29 02:55:07;;;;;;;4.15;1.40;;;;;;;;;;5047889;28;20484;-79
2023/12/29 02:57:32;;;;;;;5.70;1.40;;;;;;;;;;5039206;28;20522;-78
2023/12/29 02:59:57;;;;;;;2.20;0.90;;;;;;;;;;5071126;28;20041;-79
2023/12/29 03:02:24;;;;;;;5.03;1.20;;;;;;;;;;5056825;28;20051;-81
2023/12/29 03:04:54;;;;;;;3.37;1.10;;;;;;;;;;5054941;28;20033;-77
2023/12/29 03:07:19;;;;;;;3.38;1.10;;;;;;;;;;5037946;28;20279;-78
2023/12/29 03:09:44;;;;;;;2.30;1.05;;;;;;;;;;5058778;28;20489;-79
2023/12/29 03:12:10;;;;;;;2.55;1.20;;;;;;;;;;5056405;28;20119;-79
2023/12/29 03:14:35;;;;;;;2.08;0.93;;;;;;;;;;5054324;28;20037;-78
2023/12/29 03:17:01;;;;;;;2.65;1.15;;;;;;;;;;5038016;28;20036;-79
2023/12/29 03:19:27;;;;;;;3.15;1.30;;;;;;;;;;5053988;28;20036;-78
2023/12/29 03:21:58;;;;;;;2.78;1.17;;;;;;;;;;5056938;28;20048;-78
2023/12/29 03:24:23;;;;;;;4.15;1.25;;;;;;;;;;5065648;28;20552;-79
2023/12/29 03:26:49;;;;;;;2.88;0.98;;;;;;;;;;5045972;28;20123;-78
2023/12/29 03:29:14;;;;;;;3.38;1.10;;;;;;;;;;5056519;28;20040;-79
2023/12/29 03:31:58;;;;;;;4.78;1.30;;;;;;;;;;5054059;28;20071;-79
2023/12/29 03:34:23;;;;;;;2.75;1.00;;;;;;;;;;5059223;28;20029;-80
2023/12/29 03:36:48;;;;;;;3.63;1.15;;;;;;;;;;5072265;28;20396;-81
2023/12/29 03:39:14;;;;;;;2.63;1.13;;;;;;;;;;5047479;28;20120;-79
2023/12/29 03:41:39;;;;;;;1.95;0.90;;;;;;;;;;5058170;28;20040;-79
2023/12/29 03:44:06;;;;;;;2.10;0.95;;;;;;;;;;5048442;28;20086;-78
2023/12/29 03:46:32;;;;;;;3.53;1.17;;;;;;;;;;5042430;28;20428;-79
2023/12/29 03:48:58;;;;;;;2.55;1.00;;;;;;;;;;5051280;28;20044;-78
2023/12/29 03:51:23;;;;;;;3.22;1.15;;;;;;;;;;5058558;28;20029;-79
2023/12/29 03:53:49;;;;;;;2.88;1.02;;;;;;;;;;5064126;28;20037;-79
2023/12/29 03:56:17;;;;;;;2.33;0.80;;;;;;;;;;5069506;28;20059;-79
2023/12/29 03:58:43;;;;;;;3.53;1.10;;;;;;;;;;5047229;28;20124;-79
2023/12/29 04:01:12;;;;;;;2.67;1.05;;;;;;;;;;5054923;28;20533;-78
2023/12/29 04:03:38;;;;;;;3.03;0.93;;;;;;;;;;5040985;28;20519;-78
2023/12/29 04:06:04;;;;;;;1.80;0.75;;;;;;;;;;5053445;28;20094;-78
2023/12/29 04:08:30;;;;;;;2.63;1.00;;;;;;;;;;5055566;28;20040;-79
2023/12/29 04:10:56;;;;;;;2.75;1.23;;;;;;;;;;5053933;28;20052;-78
2023/12/29 04:13:22;;;;;;;2.17;0.80;;;;;;;;;;5057730;28;20036;-78
2023/12/29 04:15:48;;;;;;;3.92;1.10;;;;;;;;;;5044684;28;20960;-79
2023/12/29 04:18:13;;;;;;;2.17;0.77;;;;;;;;;;5057946;28;20630;-78
2023/12/29 04:20:40;;;;;;;2.30;0.90;;;;;;;;;;5058913;28;20044;-79
2023/12/29 04:23:07;;;;;;;2.85;1.00;;;;;;;;;;5053123;28;20044;-78
2023/12/29 04:25:32;;;;;;;3.22;0.88;;;;;;;;;;5042849;28;20094;-79
2023/12/29 04:27:58;;;;;;;1.73;0.73;;;;;;;;;;5065014;28;20135;-77
2023/12/29 04:30:24;;;;;;;3.45;0.80;;;;;;;;;;5047918;28;20056;-80
2023/12/29 04:32:50;;;;;;;3.65;0.80;;;;;;;;;;5067076;28;20040;-78
2023/12/29 04:35:19;;;;;;;1.90;0.80;;;;;;;;;;5061469;28;20082;-81
2023/12/29 04:37:47;;;;;;;2.22;0.80;;;;;;;;;;5045890;28;20071;-79
2023/12/29 04:40:13;;;;;;;2.25;0.95;;;;;;;;;;5069736;28;21554;-78
2023/12/29 04:42:38;;;;;;;2.75;0.80;;;;;;;;;;5045829;28;20033;-78
2023/12/29 04:45:05;;;;;;;4.35;1.05;;;;;;;;;;5054635;28;20044;-79
2023/12/29 04:47:31;;;;;;;1.50;0.60;;;;;;;;;;5033406;28;20043;-79
2023/12/29 04:49:57;;;;;;;3.20;0.60;;;;;;;;;;5081264;28;20396;-80
2023/12/29 04:52:22;;;;;;;2.25;0.65;;;;;;;;;;5051902;28;20025;-78
2023/12/29 04:54:48;;;;;;;2.03;0.70;;;;;;;;;;5050791;28;20489;-78
2023/12/29 04:57:15;;;;;;;1.88;0.63;;;;;;;;;;5029220;28;20120;-77
2023/12/29 04:59:47;;;;;;;2.63;0.77;;;;;;;;;;5045390;28;20047;-79
2023/12/29 05:02:13;;;;;;;2.55;0.70;;;;;;;;;;5042556;28;20167;-79
2023/12/29 05:04:38;;;;;;;3.75;0.70;;;;;;;;;;5056787;28;20498;-80
2023/12/29 05:07:05;;;;;;;3.05;0.80;;;;;;;;;;5055561;28;20036;-77
2023/12/29 05:09:35;;;;;;;1.85;0.80;;;;;;;;;;5055681;28;20037;-78
2023/12/29 05:12:01;;;;;;;1.83;0.70;;;;;;;;;;5054569;28;20032;-80
2023/12/29 05:14:26;;;;;;;3.20;0.80;;;;;;;;;;5055075;28;20036;-79
2023/12/29 05:16:52;;;;;;;4.03;0.93;;;;;;;;;;5053571;28;20400;-80
2023/12/29 05:19:17;;;;;;;2.05;0.70;;;;;;;;;;5054780;28;20059;-80
2023/12/29 05:21:42;;;;;;;2.38;0.60;;;;;;;;;;5053133;28;20040;-78
2023/12/29 05:24:11;;;;;;;5.38;0.70;;;;;;;;;;5060628;28;20399;-79
2023/12/29 05:26:36;;;;;;;1.63;0.60;;;;;;;;;;5048589;28;20043;-77
2023/12/29 05:29:05;;;;;;;2.88;1.02;;;;;;;;;;5041281;28;20036;-78
2023/12/29 05:31:35;;;;;;;1.33;0.47;;;;;;;;;;5042274;28;20040;-79
2023/12/29 05:34:01;;;;;;;2.83;0.70;;;;;;;;;;5031555;28;20036;-79
2023/12/29 05:36:36;;;;;;;1.52;0.60;;;;;;;;;;5022691;28;20045;-80
2023/12/29 05:39:03;;;;;;;3.15;0.75;;;;;;;;;;5050395;28;20032;-79
2023/12/29 05:41:32;;;;;;;2.88;0.65;;;;;;;;;;5034061;28;20047;-77
2023/12/29 05:44:02;;;;;;;2.42;0.63;;;;;;;;;;5056182;28;20366;-78
2023/12/29 05:46:28;;;;;;;3.28;0.70;;;;;;;;;;5046549;28;20041;-80
2023/12/29 05:48:53;;;;;;;2.78;0.60;;;;;;;;;;5045263;28;20036;-80
2023/12/29 05:51:24;;;;;;;2.22;0.80;;;;;;;;;;5060638;28;20039;-79
2023/12/29 05:53:49;;;;;;;2.70;0.70;;;;;;;;;;5018695;28;20492;-79
2023/12/29 05:56:15;;;;;;;1.50;0.70;;;;;;;;;;5044909;28;20115;-79
2023/12/29 05:58:42;;;;;;;2.30;0.60;;;;;;;;;;5054685;28;20049;-81
2023/12/29 06:01:10;;;;;;;1.55;0.55;;;;;;;;;;5050283;28;20035;-80
2023/12/29 06:03:35;;;;;;;2.80;0.70;;;;;;;;;;5034627;28;20040;-80
2023/12/29 06:06:01;;;;;;;1.65;0.60;;;;;;;;;;5050609;28;20648;-80
2023/12/29 06:08:27;;;;;;;2.60;0.70;;;;;;;;;;5052782;28;20384;-80
2023/12/29 06:10:52;;;;;;;1.63;0.73;;;;;;;;;;5042862;28;20041;-78
2023/12/29 06:13:18;;;;;;;2.17;0.70;;;;;;;;;;5053658;28;20029;-78
2023/12/29 06:15:46;;;;;;;2.25;0.77;;;;;;;;;;5053748;28;20037;-78
2023/12/29 06:18:11;;;;;;;2.03;0.60;;;;;;;;;;5060997;28;20036;-77
2023/12/29 06:20:36;;;;;;;2.10;0.80;;;;;;;;;;5055696;28;20120;-78
2023/12/29 06:23:04;;;;;;;2.13;0.70;;;;;;;;;;5062609;28;20029;-80
2023/12/29 06:25:30;;;;;;;4.88;0.70;;;;;;;;;;5038392;28;20131;-81
2023/12/29 06:27:55;;;;;;;2.92;0.70;;;;;;;;;;5037390;28;20128;-79
2023/12/29 06:30:24;;;;;;;1.50;0.55;;;;;;;;;;5037482;28;20043;-78
2023/12/29 06:32:51;;;;;;;1.77;0.70;;;;;;;;;;5036049;28;20029;-78
2023/12/29 06:35:17;;;;;;;2.88;0.80;;;;;;;;;;5056081;28;20040;-78
2023/12/29 06:37:45;;;;;;;2.95;0.77;;;;;;;;;;5058824;28;20480;-78
2023/12/29 06:40:11;;;;;;;2.45;0.70;;;;;;;;;;5040599;28;20047;-78
2023/12/29 06:42:38;;;;;;;2.15;0.70;;;;;;;;;;5042442;28;20032;-77
2023/12/29 06:45:07;;;;;;;1.65;0.80;;;;;;;;;;5030336;28;20032;-78
2023/12/29 06:47:32;;;;;;;3.03;0.88;;;;;;;;;;5040116;28;20046;-79
2023/12/29 06:49:58;;;;;;;2.85;0.60;;;;;;;;;;5051502;28;20416;-78
2023/12/29 06:52:23;;;;;;;6.05;1.08;;;;;;;;;;5058371;28;20036;-82
2023/12/29 06:54:52;;;;;;;3.00;0.80;;;;;;;;;;5056015;28;20030;-78
2023/12/29 06:57:17;;;;;;;2.92;0.90;;;;;;;;;;5070573;28;20040;-78
2023/12/29 06:59:43;;;;;;;3.25;1.08;;;;;;;;;;5043975;28;20032;-78
2023/12/29 07:02:08;;;;;;;4.50;0.85;;;;;;;;;;5043443;28;20040;-79
2023/12/29 07:04:34;;;;;;;3.35;0.93;;;;;;;;;;5054434;28;20496;-79
2023/12/29 07:07:01;;;;;;;2.88;0.90;;;;;;;;;;5054901;28;20448;-80
2023/12/29 07:09:26;;;;;;;4.55;1.10;;;;;;;;;;5050599;28;20041;-78
2023/12/29 07:11:52;;;;;;;2.72;1.13;;;;;;;;;;5050607;28;20040;-79
2023/12/29 07:14:17;;;;;;;2.72;0.85;;;;;;;;;;5035244;28;20029;-78
2023/12/29 07:16:43;;;;;;;2.00;0.85;;;;;;;;;;5049007;28;20503;-78
2023/12/29 07:19:14;;;;;;;3.00;0.82;;;;;;;;;;5069258;28;20036;-78
2023/12/29 07:21:40;;;;;;;2.42;0.90;;;;;;;;;;5044948;28;20040;-79
2023/12/29 07:24:05;;;;;;;5.00;1.08;;;;;;;;;;5054783;28;20082;-78
2023/12/29 07:26:34;;;;;;;2.90;0.85;;;;;;;;;;5058759;28;20040;-78
2023/12/29 07:29:00;;;;;;;2.38;0.90;;;;;;;;;;5054357;28;20059;-78
2023/12/29 07:31:26;;;;;;;2.70;0.98;;;;;;;;;;5054162;28;20044;-79
2023/12/29 07:33:51;;;;;;;2.72;1.10;;;;;;;;;;5052929;28;20400;-78
2023/12/29 07:36:16;;;;;;;2.40;0.85;;;;;;;;;;5047645;28;20037;-79
2023/12/29 07:38:45;;;;;;;2.60;0.95;;;;;;;;;;5048008;28;20166;-79
2023/12/29 07:41:28;;;;;;;2.85;0.95;;;;;;;;;;5053295;28;20120;-79
2023/12/29 07:43:53;;;;;;;4.05;1.08;;;;;;;;;;5055563;28;20495;-82
2023/12/29 07:46:28;;;;;;;3.58;0.90;;;;;;;;;;5039699;28;20029;-79
2023/12/29 07:48:54;;;;;;;3.88;1.10;;;;;;;;;;5045367;28;20040;-79
2023/12/29 07:51:28;;;;;;;2.15;0.90;;;;;;;;;;5054817;28;20515;-80
2023/12/29 07:53:54;;;;;;;2.05;0.70;;;;;;;;;;5056775;28;20361;-80
2023/12/29 07:56:19;;;;;;;3.97;1.55;;;;;;;;;;5015283;28;20151;-80
2023/12/29 07:58:45;;;;;;;3.80;1.02;;;;;;;;;;5041172;28;20042;-78
2023/12/29 08:01:11;;;;;;;4.45;1.10;;;;;;;;;;5052454;28;20048;-79
2023/12/29 08:03:37;;;;;;;2.22;0.82;;;;;;;;;;5053140;28;20048;-79
2023/12/29 08:06:02;;;;;;;4.18;1.10;;;;;;;;;;5039035;28;20523;-79
2023/12/29 08:08:27;;;;;;;4.40;1.02;;;;;;;;;;5061908;28;20120;-80
2023/12/29 08:10:53;;;;;;;4.93;1.00;;;;;;;;;;5057224;28;20040;-79
2023/12/29 08:13:18;;;;;;;3.53;0.98;;;;;;;;;;5058585;28;20034;-78
2023/12/29 08:15:43;;;;;;;3.17;0.93;;;;;;;;;;5053264;28;20120;-79
2023/12/29 08:18:16;;;;;;;3.55;0.80;;;;;;;;;;5044202;28;20033;-79
2023/12/29 08:20:42;;;;;;;3.88;1.02;;;;;;;;;;5048247;28;20084;-79
2023/12/29 08:23:07;;;;;;;2.13;0.80;;;;;;;;;;5055351;28;20037;-79
2023/12/29 08:25:33;;;;;;;4.25;1.10;;;;;;;;;;5043809;28;20043;-79
2023/12/29 08:27:58;;;;;;;3.55;1.20;;;;;;;;;;5055796;28;20547;-77
2023/12/29 08:30:24;;;;;;;3.70;0.90;;;;;;;;;;5047543;28;20242;-79
2023/12/29 08:32:50;;;;;;;2.75;0.90;;;;;;;;;;5057175;28;20120;-79
2023/12/29 08:35:16;;;;;;;3.53;0.90;;;;;;;;;;5052927;28;20699;-79
2023/12/29 08:37:41;;;;;;;2.50;0.85;;;;;;;;;;5035735;28;20039;-80
2023/12/29 08:40:07;;;;;;;2.65;0.82;;;;;;;;;;5054619;28;20029;-79
2023/12/29 08:42:33;;;;;;;3.83;0.90;;;;;;;;;;5064400;28;20546;-80
2023/12/29 08:44:59;;;;;;;3.15;0.82;;;;;;;;;;5056561;28;20029;-78
2023/12/29 08:47:40;;;;;;;6.20;1.10;;;;;;;;;;5030858;28;20024;-78
2023/12/29 08:50:06;;;;;;;2.42;0.80;;;;;;;;;;5069512;28;20445;-78
2023/12/29 08:52:33;;;;;;;3.15;0.90;;;;;;;;;;5053627;28;20112;-79
2023/12/29 08:55:01;;;;;;;3.42;0.90;;;;;;;;;;5044838;28;20033;-78
2023/12/29 08:57:26;;;;;;;5.53;0.90;;;;;;;;;;5049927;28;20082;-80
2023/12/29 08:59:52;;;;;;;4.18;0.90;;;;;;;;;;5062996;28;20074;-79
2023/12/29 09:02:17;;;;;;;2.67;0.82;;;;;;;;;;5044793;28;21211;-79
2023/12/29 09:04:42;;;;;;;4.40;1.00;;;;;;;;;;5049423;28;20419;-79
2023/12/29 09:07:08;;;;;;;3.08;1.00;;;;;;;;;;5043570;28;20037;-79
2023/12/29 09:09:33;;;;;;;3.72;0.80;;;;;;;;;;5071357;28;20052;-78
2023/12/29 09:12:02;;;;;;;2.42;0.60;;;;;;;;;;5037061;28;20550;-78
2023/12/29 09:14:29;;;;;;;2.90;0.95;;;;;;;;;;5045163;28;20574;-78
2023/12/29 09:16:55;;;;;;;;;;;;;;;;;;5064364;28;20033;-79
2023/12/29 09:19:22;;;;;;;4.35;0.90;;;;;;;;;;5087778;28;20478;-78
2023/12/29 09:21:48;;;;;;;;;;;;;;;;;;5057945;28;20230;-79
2023/12/29 09:24:22;;;;;;;2.75;0.90;;;;;;;;;;5046419;28;20016;-79
2023/12/29 09:26:48;;;;;;;5.32;1.20;;;;;;;;;;5028644;28;20037;-78
2023/12/29 09:29:13;;;;;;;4.03;0.75;;;;;;;;;;5053231;28;20653;-78
2023/12/29 09:31:39;;;;;;;4.78;1.10;;;;;;;;;;5054822;28;20064;-78
2023/12/29 09:34:04;;;;;;;4.50;1.17;;;;;;;;;;5054124;28;20021;-79
2023/12/29 09:36:30;;;;;;;4.70;1.20;;;;;;;;;;5043277;28;20044;-78
2023/12/29 09:38:55;;;;;;;4.43;1.08;;;;;;;;;;5067572;28;20036;-78
2023/12/29 09:41:26;;;;;;;4.20;0.82;;;;;;;;;;5052733;28;20126;-77
2023/12/29 09:43:51;;;;;;;3.08;0.93;;;;;;;;;;5037851;28;20606;-78
2023/12/29 09:46:18;;;;;;;3.55;1.10;;;;;;;;;;5049523;28;20032;-78
2023/12/29 09:48:47;;;;;;;3.47;0.93;;;;;;;;;;5048861;28;20036;-80
2023/12/29 09:51:16;;;;;;;3.33;1.35;;;;;;;;;;5050988;28;20071;-80
2023/12/29 09:53:41;;;;;;;3.10;1.05;;;;;;;;;;5055753;28;20040;-80
2023/12/29 09:56:14;;;;;;;2.88;0.80;;;;;;;;;;5050959;28;20389;-78
2023/12/29 09:58:47;;;;;;;5.53;1.10;;;;;;;;;;5067024;28;20040;-80
2023/12/29 10:01:13;;;;;;;3.80;0.85;;;;;;;;;;5046249;28;20400;-78
2023/12/29 10:03:39;;;;;;;2.72;0.80;;;;;;;;;;5042845;28;20033;-79
2023/12/29 10:06:09;;;;;;;5.15;0.98;;;;;;;;;;5050152;28;20153;-79
2023/12/29 10:08:36;;;;;;;2.60;0.68;;;;;;;;;;5045115;28;20068;-80
2023/12/29 10:11:02;;;;;;;4.50;0.95;;;;;;;;;;5034395;28;20037;-79
2023/12/29 10:13:29;;;;;;;3.22;0.98;;;;;;;;;;5052046;28;20045;-78
2023/12/29 10:16:09;;;;;;;2.47;0.77;;;;;;;;;;5058024;28;20106;-80
2023/12/29 10:18:44;;;;;;;3.45;0.80;;;;;;;;;;5039140;28;20033;-79
2023/12/29 10:21:32;;;;;;;3.28;0.98;;;;;;;;;;5043237;28;20522;-79
2023/12/29 10:24:11;;;;;;;2.75;0.82;;;;;;;;;;5026516;28;20040;-77
2023/12/29 10:26:36;;;;;;;5.72;1.08;;;;;;;;;;5052407;28;20494;-79
2023/12/29 10:29:02;;;;;;;2.10;0.60;;;;;;;;;;5038262;28;20100;-79
2023/12/29 10:31:45;;;;;;;3.50;0.98;;;;;;;;;;5054622;28;20099;-79
2023/12/29 10:34:20;;;;;;;3.60;0.90;;;;;;;;;;5070140;28;20040;-79
2023/12/29 10:37:09;;;;;;;3.75;0.90;;;;;;;;;;5066707;28;20122;-79
2023/12/29 10:39:37;;;;;;;5.00;0.95;;;;;;;;;;5054222;28;20060;-78
2023/12/29 10:42:10;;;;;;;3.03;0.68;;;;;;;;;;5038374;28;20120;-78
2023/12/29 10:44:36;;;;;;;3.85;0.73;;;;;;;;;;5050293;28;20497;-77
2023/12/29 10:47:11;;;;;;;2.28;0.70;;;;;;;;;;5044063;28;20044;-78
2023/12/29 10:49:37;;;;;;;4.70;0.90;;;;;;;;;;5053084;28;20043;-80
2023/12/29 10:52:16;;;;;;;4.82;0.90;;;;;;;;;;5041546;28;20039;-77
2023/12/29 10:54:43;;;;;;;4.57;1.10;;;;;;;;;;5042968;28;20047;-79
2023/12/29 10:57:12;;;;;;;;;;;;;;;;;;5033424;28;20043;-80
2023/12/29 10:59:38;;;;;;;3.63;0.85;;;;;;;;;;5052627;28;19917;-78
2023/12/29 11:02:04;;;;;;;3.40;0.90;;;;;;;;;;5044425;28;20070;-78
2023/12/29 11:04:34;;;;;;;6.55;1.10;;;;;;;;;;5059403;28;20435;-77
2023/12/29 11:07:00;;;;;;;3.90;0.90;;;;;;;;;;5045797;28;20036;-79
2023/12/29 11:09:35;;;;;;;3.95;0.80;;;;;;;;;;5056357;28;20409;-79
2023/12/29 11:12:17;;;;;;;3.25;0.75;;;;;;;;;;5059469;28;20037;-79
2023/12/29 11:14:46;;;;;;;4.90;1.00;;;;;;;;;;5031640;28;20067;-79
2023/12/29 11:17:35;;;;;;;2.78;0.80;;;;;;;;;;5048991;28;20690;-79
2023/12/29 11:20:02;;;;;;;2.85;0.70;;;;;;;;;;5050592;28;20037;-80
2023/12/29 11:22:29;;;;;;;3.55;0.80;;;;;;;;;;5047310;28;20072;-80
2023/12/29 11:24:55;;;;;;;4.22;1.00;;;;;;;;;;5040560;28;20039;-78
2023/12/29 11:27:21;;;;;;;4.55;0.80;;;;;;;;;;5038225;28;20389;-78
2023/12/29 11:29:47;;;;;;;2.90;0.75;;;;;;;;;;5053186;28;20043;-78
2023/12/29 11:32:18;;;;;;;4.18;1.13;;;;;;;;;;5039155;28;20035;-81
2023/12/29 11:34:51;;;;;;;3.45;0.90;;;;;;;;;;5049241;28;20563;-79
2023/12/29 11:37:23;;;;;;;3.13;0.73;;;;;;;;;;5058020;28;20740;-79
2023/12/29 11:39:52;;;;;;;4.45;1.00;;;;;;;;;;5060437;28;20033;-79
2023/12/29 11:42:21;;;;;;;4.40;0.73;;;;;;;;;;5039732;28;20075;-80
2023/12/29 11:44:48;;;;;;;3.45;0.90;;;;;;;;;;5052530;28;20063;-77
2023/12/29 11:47:36;;;;;;;2.90;0.88;;;;;;;;;;5050944;28;20037;-80
2023/12/29 11:50:02;;;;;;;4.22;0.80;;;;;;;;;;5060050;28;20103;-79
2023/12/29 11:52:39;;;;;;;4.85;1.10;;;;;;;;;;5064051;28;20164;-79
2023/12/29 11:55:17;;;;;;;4.55;0.80;;;;;;;;;;5043209;28;20029;-79
2023/12/29 11:58:04;;;;;;;2.85;0.90;;;;;;;;;;5055541;28;20389;-79
2023/12/29 12:00:49;;;;;;;4.20;0.95;;;;;;;;;;5064146;28;20037;-77
2023/12/29 12:03:25;;;;;;;3.47;0.88;;;;;;;;;;5051658;28;20040;-78
2023/12/29 12:05:52;;;;;;;2.53;0.75;;;;;;;;;;5041814;28;20464;-79
2023/12/29 12:08:39;;;;;;;4.15;0.80;;;;;;;;;;5030665;28;20036;-78
2023/12/29 12:11:37;;;;;;;;;;;;;;;;;;5061157;28;20067;-78
2023/12/29 12:14:03;;;;;;;4.57;1.20;;;;;;;;;;5052184;28;20371;-77
2023/12/29 12:16:49;;;;;;;4.63;0.90;;;;;;;;;;5046317;28;20041;-77
2023/12/29 12:19:16;;;;;;;3.88;0.85;;;;;;;;;;5055606;28;20054;-77
2023/12/29 12:22:02;;;;;;;3.90;0.90;;;;;;;;;;5044774;28;20044;-78
2023/12/29 12:24:27;;;;;;;4.28;0.85;;;;;;;;;;5057330;28;20135;-78
2023/12/29 12:26:54;;;;;;;3.67;0.85;;;;;;;;;;5038417;28;20551;-78
2023/12/29 12:29:22;;;;;;;2.13;0.55;;;;;;;;;;5040889;28;20028;-78
2023/12/29 12:32:00;;;;;;;3.13;0.90;;;;;;;;;;5039631;28;20043;-79
2023/12/29 12:34:26;;;;;;;;;;;;;;;;;;5056635;28;20540;-79
2023/12/29 12:36:52;;;;;;;2.90;0.68;;;;;;;;;;5055198;28;19923;-79
2023/12/29 12:39:18;;;;;;;3.08;0.70;;;;;;;;;;5057630;28;20045;-80
2023/12/29 12:41:45;;;;;;;3.45;0.77;;;;;;;;;;5029826;28;20053;-79
2023/12/29 12:44:12;;;;;;;4.43;1.15;;;;;;;;;;5043495;28;20033;-79
2023/12/29 12:46:49;;;;;;;2.47;0.70;;;;;;;;;;5050431;28;20040;-79
2023/12/29 12:49:23;;;;;;;3.38;0.80;;;;;;;;;;5053196;28;20392;-78
2023/12/29 12:51:49;;;;;;;3.28;0.90;;;;;;;;;;5055053;28;20404;-79
2023/12/29 12:54:18;;;;;;;3.63;1.00;;;;;;;;;;5049214;28;20043;-78
2023/12/29 12:56:59;;;;;;;3.10;0.90;;;;;;;;;;5027896;28;20032;-78
2023/12/29 12:59:26;;;;;;;5.47;1.10;;;;;;;;;;5054275;28;20060;-78
2023/12/29 13:01:52;;;;;;;2.45;0.80;;;;;;;;;;5058564;28;20043;-79
2023/12/29 13:04:17;;;;;;;5.63;1.25;;;;;;;;;;5042205;28;20415;-78
2023/12/29 13:06:53;;;;;;;5.68;1.00;;;;;;;;;;5050273;28;20029;-81
2023/12/29 13:09:21;;;;;;;4.85;0.98;;;;;;;;;;5054586;28;20029;-79
2023/12/29 13:11:47;;;;;;;3.55;1.45;;;;;;;;;;5048732;28;20419;-80
2023/12/29 13:14:44;;;;;;;3.35;1.08;;;;;;;;;;5038209;28;20060;-80
2023/12/29 13:17:15;;;;;;;3.85;1.05;;;;;;;;;;5047613;28;20036;-80
2023/12/29 13:19:43;;;;;;;3.70;1.00;;;;;;;;;;5040084;28;20033;-79
2023/12/29 13:22:10;;;;;;;2.30;0.88;;;;;;;;;;5039004;28;20491;-81
2023/12/29 13:24:47;;;;;;;3.20;0.85;;;;;;;;;;5046724;28;20117;-80
2023/12/29 13:27:14;;;;;;;3.30;0.93;;;;;;;;;;5019278;28;20069;-80
2023/12/29 13:29:40;;;;;;;5.85;1.17;;;;;;;;;;5030606;28;20454;-79
2023/12/29 13:32:08;;;;;;;2.78;0.90;;;;;;;;;;5051813;28;20036;-78
2023/12/29 13:35:13;;;;;;;3.45;0.90;;;;;;;;;;5051384;28;20052;-79
2023/12/29 13:38:02;;;;;;;2.83;1.00;;;;;;;;;;5038022;28;20045;-81
2023/12/29 13:40:41;;;;;;;4.30;0.95;;;;;;;;;;5049508;28;20046;-79
2023/12/29 13:43:08;;;;;;;3.13;0.90;;;;;;;;;;5047048;28;20050;-79
2023/12/29 13:45:34;;;;;;;3.20;0.87;;;;;;;;;;5052500;28;20048;-79
2023/12/29 13:48:01;;;;;;;5.47;1.00;;;;;;;;;;5043814;28;20056;-79
2023/12/29 13:50:26;;;;;;;3.55;0.93;;;;;;;;;;5040196;28;20120;-79
2023/12/29 13:52:55;;;;;;;3.45;0.90;;;;;;;;;;5055923;28;20140;-78
2023/12/29 13:55:24;;;;;;;2.47;0.82;;;;;;;;;;5037687;28;20527;-79
2023/12/29 13:57:50;;;;;;;4.72;0.85;;;;;;;;;;5038179;28;20403;-78
2023/12/29 14:00:23;;;;;;;2.83;0.82;;;;;;;;;;5059364;28;20338;-78
2023/12/29 14:02:55;;;;;;;2.25;0.80;;;;;;;;;;5053614;28;20112;-80
2023/12/29 14:05:20;;;;;;;2.40;0.70;;;;;;;;;;5052511;28;20116;-78
2023/12/29 14:08:47;;;;;;;6.22;0.70;;;;;;;;;;5060038;28;20039;-79
2023/12/29 14:11:12;;;;;;;3.00;0.70;;;;;;;;;;5027923;28;20037;-83
2023/12/29 14:13:47;;;;;;;3.60;0.80;;;;;;;;;;5041523;28;20040;-81
2023/12/29 14:16:13;;;;;;;3.88;0.82;;;;;;;;;;5063346;28;20040;-78
2023/12/29 14:18:46;;;;;;;3.10;0.88;;;;;;;;;;5042991;28;20038;-79
2023/12/29 14:21:41;;;;;;;2.35;0.60;;;;;;;;;;5047744;28;20159;-78
2023/12/29 14:24:13;;;;;;;2.85;0.80;;;;;;;;;;5046757;28;20178;-78
2023/12/29 14:27:20;;;;;;;2.42;0.60;;;;;;;;;;5041355;28;20445;-78
2023/12/29 14:29:46;;;;;;;2.53;0.70;;;;;;;;;;5028431;28;20037;-81
2023/12/29 14:32:11;;;;;;;4.22;0.88;;;;;;;;;;5051547;28;20025;-79
2023/12/29 14:34:37;;;;;;;5.10;0.90;;;;;;;;;;5053751;28;20540;-78
2023/12/29 14:37:02;;;;;;;2.85;0.90;;;;;;;;;;5051036;28;20033;-78
2023/12/29 14:39:27;;;;;;;1.60;0.50;;;;;;;;;;5056404;28;20037;-81
2023/12/29 14:41:53;;;;;;;1.77;0.73;;;;;;;;;;5051599;28;20043;-79
2023/12/29 14:44:18;;;;;;;3.53;0.50;;;;;;;;;;5072266;28;20040;-79
2023/12/29 14:46:44;;;;;;;2.78;0.70;;;;;;;;;;5059167;28;20037;-80
2023/12/29 14:49:09;;;;;;;2.15;0.75;;;;;;;;;;5050161;28;20037;-79
2023/12/29 14:51:35;;;;;;;2.70;0.60;;;;;;;;;;5039289;28;20032;-78
2023/12/29 14:54:03;;;;;;;3.13;0.70;;;;;;;;;;5047669;28;20048;-79